createdAt,value
2024-01-17T00:00:21.883Z,-0.90
2024-01-17T00:02:50.543Z,-1.00
2024-01-17T00:05:19.110Z,-1.10
2024-01-17T00:07:48.862Z,-1.20
2024-01-17T00:10:17.634Z,-1.20
2024-01-17T00:12:46.013Z,-1.20
2024-01-17T00:15:14.556Z,-1.20
2024-01-17T00:17:42.951Z,-1.30
2024-01-17T00:20:12.003Z,-1.30
2024-01-17T00:22:40.597Z,-1.30
2024-01-17T00:25:11.030Z,-1.30
2024-01-17T00:27:39.360Z,-1.40
2024-01-17T00:30:09.541Z,-1.40
2024-01-17T00:32:38.168Z,-1.40
2024-01-17T00:35:09.648Z,-1.40
2024-01-17T00:37:38.135Z,-1.40
2024-01-17T00:40:07.298Z,-1.40
2024-01-17T00:42:37.064Z,-1.40
2024-01-17T00:45:07.995Z,-1.40
2024-01-17T00:47:37.383Z,-1.50
2024-01-17T00:50:07.090Z,-1.50
2024-01-17T00:52:35.489Z,-1.50
2024-01-17T00:55:03.896Z,-1.50
2024-01-17T00:57:32.304Z,-1.60
2024-01-17T01:00:02.324Z,-1.60
2024-01-17T01:02:30.773Z,-1.60
2024-01-17T01:04:59.410Z,-1.60
2024-01-17T01:07:27.709Z,-1.60
2024-01-17T01:09:57.527Z,-1.60
2024-01-17T01:12:26.207Z,-1.70
2024-01-17T01:14:54.642Z,-1.70
2024-01-17T01:17:24.517Z,-1.70
2024-01-17T01:19:52.956Z,-1.70
2024-01-17T01:22:22.500Z,-1.70
2024-01-17T01:24:50.886Z,-1.70
2024-01-17T01:27:19.193Z,-1.70
2024-01-17T01:29:47.643Z,-1.80
2024-01-17T01:32:16.060Z,-1.80
2024-01-17T01:34:45.921Z,-1.90
2024-01-17T01:37:14.312Z,-1.90
2024-01-17T01:39:42.683Z,-1.90
2024-01-17T01:42:11.085Z,-1.90
2024-01-17T01:44:39.516Z,-2.00
2024-01-17T01:47:09.213Z,-2.00
2024-01-17T01:49:38.584Z,-2.10
2024-01-17T01:52:08.654Z,-2.10
2024-01-17T01:54:36.993Z,-2.10
2024-01-17T01:57:05.862Z,-2.20
2024-01-17T01:59:34.355Z,-2.20
2024-01-17T02:02:05.814Z,-2.30
2024-01-17T02:04:34.365Z,-2.30
2024-01-17T02:07:03.156Z,-2.40
2024-01-17T02:09:33.817Z,-2.30
2024-01-17T02:12:02.471Z,-2.40
2024-01-17T02:14:31.294Z,-2.40
2024-01-17T02:16:59.735Z,-2.40
2024-01-17T02:19:28.219Z,-2.40
2024-01-17T02:21:56.625Z,-2.50
2024-01-17T02:24:29.838Z,-2.50
2024-01-17T02:27:01.302Z,-2.50
2024-01-17T02:29:30.205Z,-2.60
2024-01-17T02:31:59.172Z,-2.60
2024-01-17T02:34:27.822Z,-2.60
2024-01-17T02:36:56.237Z,-2.50
2024-01-17T02:39:26.490Z,-2.60
2024-01-17T02:41:54.959Z,-2.60
2024-01-17T02:44:23.443Z,-2.60
2024-01-17T02:46:51.810Z,-2.70
2024-01-17T02:49:21.206Z,-2.80
2024-01-17T02:51:49.889Z,-2.70
2024-01-17T02:54:18.315Z,-2.70
2024-01-17T02:56:48.159Z,-2.70
2024-01-17T02:59:16.846Z,-2.70
2024-01-17T03:01:47.433Z,-2.70
2024-01-17T03:04:16.535Z,-2.70
2024-01-17T03:06:47.010Z,-2.70
2024-01-17T03:09:15.898Z,-2.70
2024-01-17T03:11:44.459Z,-2.70
2024-01-17T03:14:14.341Z,-2.70
2024-01-17T03:16:42.800Z,-2.70
2024-01-17T03:19:12.098Z,-2.70
2024-01-17T03:21:47.578Z,-2.70
2024-01-17T03:24:16.290Z,-2.70
2024-01-17T03:26:44.842Z,-2.80
2024-01-17T03:29:14.599Z,-2.70
2024-01-17T03:31:42.986Z,-2.70
2024-01-17T03:34:11.479Z,-2.70
2024-01-17T03:36:40.062Z,-2.80
2024-01-17T03:39:08.821Z,-2.80
2024-01-17T03:41:37.325Z,-2.80
2024-01-17T03:44:05.922Z,-2.80
2024-01-17T03:46:35.672Z,-2.80
2024-01-17T03:49:04.196Z,-2.80
2024-01-17T03:51:32.736Z,-2.80
2024-01-17T03:54:01.399Z,-2.90
2024-01-17T03:56:29.860Z,-2.90
2024-01-17T03:58:58.301Z,-2.90
2024-01-17T04:01:27.181Z,-2.90
2024-01-17T04:03:56.903Z,-3.00
2024-01-17T04:06:26.663Z,-3.10
2024-01-17T04:08:55.934Z,-3.10
2024-01-17T04:11:24.452Z,-3.10
2024-01-17T04:13:53.131Z,-3.10
2024-01-17T04:16:21.662Z,-3.10
2024-01-17T04:18:50.333Z,-3.10
2024-01-17T04:21:20.561Z,-3.10
2024-01-17T04:23:49.937Z,-3.10
2024-01-17T04:26:25.395Z,-3.10
2024-01-17T04:28:54.052Z,-3.10
2024-01-17T04:31:26.991Z,-3.10
2024-01-17T04:33:56.087Z,-3.10
2024-01-17T04:36:29.007Z,-3.20
2024-01-17T04:38:57.652Z,-3.20
2024-01-17T04:41:26.410Z,-3.30
2024-01-17T04:43:54.829Z,-3.30
2024-01-17T04:46:23.221Z,-3.30
2024-01-17T04:48:51.993Z,-3.40
2024-01-17T04:51:23.282Z,-3.40
2024-01-17T04:53:53.380Z,-3.40
2024-01-17T04:56:21.768Z,-3.40
2024-01-17T04:58:52.297Z,-3.40
2024-01-17T05:01:20.723Z,-3.40
2024-01-17T05:03:49.480Z,-3.40
2024-01-17T05:06:18.194Z,-3.50
2024-01-17T05:08:46.767Z,-3.50
2024-01-17T05:11:21.997Z,-3.50
2024-01-17T05:13:50.456Z,-3.40
2024-01-17T05:16:19.476Z,-3.40
2024-01-17T05:18:48.134Z,-3.50
2024-01-17T05:21:16.660Z,-3.40
2024-01-17T05:23:45.083Z,-3.40
2024-01-17T05:26:14.890Z,-3.50
2024-01-17T05:28:43.243Z,-3.50
2024-01-17T05:31:12.247Z,-3.50
2024-01-17T05:33:40.731Z,-3.50
2024-01-17T05:36:09.448Z,-3.60
2024-01-17T05:38:37.868Z,-3.60
2024-01-17T05:41:06.361Z,-3.60
2024-01-17T05:43:36.435Z,-3.60
2024-01-17T05:46:04.983Z,-3.60
2024-01-17T05:48:33.605Z,-3.60
2024-01-17T05:51:02.229Z,-3.50
2024-01-17T05:53:30.681Z,-3.50
2024-01-17T05:56:01.398Z,-3.60
2024-01-17T05:58:30.637Z,-3.60
2024-01-17T06:01:00.417Z,-3.60
2024-01-17T06:03:28.870Z,-3.60
2024-01-17T06:05:57.654Z,-3.50
2024-01-17T06:08:25.976Z,-3.50
2024-01-17T06:10:54.376Z,-3.50
2024-01-17T06:13:22.839Z,-3.60
2024-01-17T06:15:51.230Z,-3.60
2024-01-17T06:18:21.076Z,-3.60
2024-01-17T06:20:49.639Z,-3.60
2024-01-17T06:23:21.180Z,-3.60
2024-01-17T06:25:49.665Z,-3.60
2024-01-17T06:28:19.422Z,-3.60
2024-01-17T06:30:48.063Z,-3.60
2024-01-17T06:33:16.821Z,-3.70
2024-01-17T06:35:50.069Z,-3.70
2024-01-17T06:38:18.680Z,-3.70
2024-01-17T06:40:47.888Z,-3.70
2024-01-17T06:43:16.453Z,-3.60
2024-01-17T06:45:44.805Z,-3.60
2024-01-17T06:48:13.498Z,-3.60
2024-01-17T06:50:42.007Z,-3.70
2024-01-17T06:53:12.913Z,-3.70
2024-01-17T06:55:41.725Z,-3.70
2024-01-17T06:58:10.274Z,-3.80
2024-01-17T07:00:38.680Z,-3.80
2024-01-17T07:03:07.363Z,-3.90
2024-01-17T07:05:35.908Z,-3.90
2024-01-17T07:08:05.000Z,-3.90
2024-01-17T07:10:35.605Z,-3.90
2024-01-17T07:13:04.179Z,-3.90
2024-01-17T07:15:32.848Z,-3.90
2024-01-17T07:18:01.563Z,-3.90
2024-01-17T07:20:30.037Z,-3.90
2024-01-17T07:22:58.480Z,-3.90
2024-01-17T07:25:26.928Z,-3.80
2024-01-17T07:27:56.643Z,-3.80
2024-01-17T07:30:25.066Z,-3.90
2024-01-17T07:32:53.760Z,-3.90
2024-01-17T07:35:22.342Z,-3.90
2024-01-17T07:37:51.789Z,-3.80
2024-01-17T07:40:20.167Z,-3.70
2024-01-17T07:42:48.671Z,-3.70
2024-01-17T07:45:18.513Z,-3.60
2024-01-17T07:47:47.144Z,-3.50
2024-01-17T07:50:15.712Z,-3.40
2024-01-17T07:52:44.008Z,-3.40
2024-01-17T07:55:12.634Z,-3.30
2024-01-17T08:00:35.526Z,-3.20
2024-01-17T08:03:04.111Z,-3.10
2024-01-17T08:05:34.556Z,-3.00
2024-01-17T08:08:04.024Z,-3.00
2024-01-17T08:10:32.602Z,-2.90
2024-01-17T08:13:01.085Z,-2.80
2024-01-17T08:15:29.688Z,-2.70
2024-01-17T08:17:59.466Z,-2.60
2024-01-17T08:20:28.057Z,-2.60
2024-01-17T08:22:56.433Z,-2.50
2024-01-17T08:25:26.267Z,-2.40
2024-01-17T08:27:55.416Z,-2.30
2024-01-17T08:30:23.824Z,-2.20
2024-01-17T08:32:53.697Z,-2.20
2024-01-17T08:35:24.100Z,-2.10
2024-01-17T08:37:52.460Z,-2.00
2024-01-17T08:40:20.828Z,-1.90
2024-01-17T08:42:49.198Z,-1.80
2024-01-17T08:45:19.595Z,-1.70
2024-01-17T08:47:48.421Z,-1.60
2024-01-17T08:50:16.906Z,-1.50
2024-01-17T08:52:46.634Z,-1.40
2024-01-17T08:55:15.048Z,-1.40
2024-01-17T08:57:46.139Z,-1.30
2024-01-17T09:00:16.572Z,-1.30
2024-01-17T09:02:45.043Z,-1.30
2024-01-17T09:05:13.986Z,-1.30
2024-01-17T09:07:44.996Z,-1.20
2024-01-17T09:10:14.950Z,-1.20
2024-01-17T09:12:43.368Z,-1.20
2024-01-17T09:15:12.299Z,-1.10
2024-01-17T09:17:40.835Z,-1.10
2024-01-17T09:20:11.192Z,-1.10
2024-01-17T09:22:39.628Z,-1.10
2024-01-17T09:25:09.590Z,-1.10
2024-01-17T09:27:39.291Z,-1.00
2024-01-17T09:30:10.307Z,-0.90
2024-01-17T09:32:39.438Z,-0.90
2024-01-17T09:35:09.556Z,-0.80
2024-01-17T09:37:38.079Z,-0.80
2024-01-17T09:40:07.537Z,-0.70
2024-01-17T09:42:35.929Z,-0.70
2024-01-17T09:45:07.492Z,-0.70
2024-01-17T09:47:35.942Z,-0.60
2024-01-17T09:50:04.744Z,-0.60
2024-01-17T09:52:33.179Z,-0.50
2024-01-17T09:55:02.763Z,-0.40
2024-01-17T09:57:32.633Z,-0.40
2024-01-17T10:00:07.531Z,-0.30
2024-01-17T10:02:37.471Z,-0.10
2024-01-17T10:05:06.433Z,0.00
2024-01-17T10:07:34.797Z,0.10
2024-01-17T10:10:03.178Z,0.30
2024-01-17T10:12:31.860Z,0.30
2024-01-17T10:15:07.207Z,0.40
2024-01-17T10:17:38.072Z,0.50
2024-01-17T10:20:08.252Z,0.60
2024-01-17T10:22:36.551Z,0.70
2024-01-17T10:25:06.556Z,0.80
2024-01-17T10:27:36.050Z,0.80
2024-01-17T10:30:05.943Z,0.80
2024-01-17T10:32:34.588Z,0.90
2024-01-17T10:35:08.221Z,0.90
2024-01-17T10:37:36.868Z,0.90
2024-01-17T10:40:12.167Z,1.00
2024-01-17T10:42:42.553Z,1.00
2024-01-17T10:45:20.679Z,1.10
2024-01-17T10:47:49.713Z,1.20
2024-01-17T10:50:21.676Z,1.20
2024-01-17T10:52:50.136Z,1.30
2024-01-17T10:55:18.905Z,1.40
2024-01-17T10:57:50.574Z,1.50
2024-01-17T11:00:27.455Z,1.70
2024-01-17T11:02:55.969Z,1.80
2024-01-17T11:05:26.070Z,1.90
2024-01-17T11:07:54.428Z,2.00
2024-01-17T11:10:22.969Z,2.20
2024-01-17T11:12:51.373Z,2.50
2024-01-17T11:15:19.937Z,2.60
2024-01-17T11:17:48.518Z,2.80
2024-01-17T11:20:17.014Z,2.80
2024-01-17T11:22:49.329Z,2.80
2024-01-17T11:25:23.071Z,2.90
2024-01-17T11:27:57.590Z,2.90
2024-01-17T11:30:37.711Z,2.80
2024-01-17T11:33:09.718Z,2.80
2024-01-17T11:35:48.328Z,2.80
2024-01-17T11:38:32.821Z,2.80
2024-01-17T11:41:06.735Z,2.80
2024-01-17T11:43:39.020Z,2.80
2024-01-17T11:46:09.666Z,2.80
2024-01-17T11:48:39.669Z,2.70
2024-01-17T11:51:16.743Z,2.70
2024-01-17T11:53:50.311Z,2.70
2024-01-17T11:56:21.598Z,2.60
2024-01-17T11:58:54.606Z,2.60
2024-01-17T12:01:41.148Z,2.60
2024-01-17T12:04:14.973Z,2.50
2024-01-17T12:06:44.023Z,2.50
2024-01-17T12:09:22.061Z,2.40
2024-01-17T12:11:53.103Z,2.40
2024-01-17T12:14:21.722Z,2.40
2024-01-17T12:16:51.058Z,2.40
2024-01-17T12:19:19.789Z,2.30
2024-01-17T12:21:49.425Z,2.40
2024-01-17T12:24:19.293Z,2.40
2024-01-17T12:26:48.502Z,2.30
2024-01-17T12:29:16.958Z,2.40
2024-01-17T12:31:45.282Z,2.40
2024-01-17T12:34:13.838Z,2.50
2024-01-17T12:36:42.349Z,2.50
2024-01-17T12:39:11.363Z,2.50
2024-01-17T12:41:41.217Z,2.60
2024-01-17T12:44:09.689Z,2.60
2024-01-17T12:46:38.218Z,2.60
2024-01-17T12:49:06.645Z,2.60
2024-01-17T12:51:35.839Z,2.60
2024-01-17T12:54:05.765Z,2.60
2024-01-17T12:56:34.505Z,2.50
2024-01-17T12:59:05.808Z,2.60
2024-01-17T13:01:36.347Z,2.50
2024-01-17T13:04:07.270Z,2.50
2024-01-17T13:06:46.696Z,2.50
2024-01-17T13:09:19.928Z,2.50
2024-01-17T13:11:50.649Z,2.50
2024-01-17T13:14:21.021Z,2.50
2024-01-17T13:16:49.586Z,2.50
2024-01-17T13:19:18.169Z,2.50
2024-01-17T13:21:48.714Z,2.40
2024-01-17T13:24:17.596Z,2.30
2024-01-17T13:26:46.305Z,2.20
2024-01-17T13:29:14.918Z,2.20
2024-01-17T13:31:46.239Z,2.20
2024-01-17T13:34:14.818Z,2.20
2024-01-17T13:36:43.369Z,2.10
2024-01-17T13:39:11.924Z,2.00
2024-01-17T13:41:42.866Z,2.10
2024-01-17T13:44:13.182Z,2.00
2024-01-17T13:46:41.737Z,2.00
2024-01-17T13:49:11.765Z,2.00
2024-01-17T13:51:46.962Z,1.90
2024-01-17T13:54:17.610Z,1.90
2024-01-17T13:56:46.122Z,1.90
2024-01-17T13:59:14.475Z,1.90
2024-01-17T14:01:42.791Z,1.90
2024-01-17T14:04:13.103Z,1.90
2024-01-17T14:06:41.822Z,1.80
2024-01-17T14:09:10.861Z,1.80
2024-01-17T14:11:41.477Z,1.80
2024-01-17T14:14:12.878Z,1.80
2024-01-17T14:16:42.094Z,1.80
2024-01-17T14:19:12.399Z,1.70
2024-01-17T14:21:40.781Z,1.70
2024-01-17T14:24:10.754Z,1.70
2024-01-17T14:26:42.118Z,1.70
2024-01-17T14:29:12.060Z,1.70
2024-01-17T14:31:40.400Z,1.60
2024-01-17T14:34:11.296Z,1.60
2024-01-17T14:36:41.771Z,1.50
2024-01-17T14:39:10.209Z,1.50
2024-01-17T14:41:39.611Z,1.50
2024-01-17T14:44:07.989Z,1.40
2024-01-17T14:46:36.346Z,1.40
2024-01-17T14:49:05.360Z,1.30
2024-01-17T14:51:33.834Z,1.30
2024-01-17T14:54:04.277Z,1.30
2024-01-17T14:56:32.953Z,1.20
2024-01-17T14:59:01.724Z,1.20
2024-01-17T15:01:30.103Z,1.20
2024-01-17T15:03:58.539Z,1.10
2024-01-17T15:06:27.954Z,1.10
2024-01-17T15:08:56.414Z,1.10
2024-01-17T15:11:26.652Z,1.10
2024-01-17T15:13:55.214Z,1.00
2024-01-17T15:16:23.869Z,1.00
2024-01-17T15:18:52.402Z,1.00
2024-01-17T15:21:21.041Z,1.00
2024-01-17T15:23:49.923Z,1.00
2024-01-17T15:26:18.520Z,1.00
2024-01-17T15:28:48.214Z,0.90
2024-01-17T15:31:16.799Z,0.90
2024-01-17T15:33:45.473Z,0.90
2024-01-17T15:36:13.942Z,0.90
2024-01-17T15:38:44.910Z,0.80
2024-01-17T15:41:16.095Z,0.90
2024-01-17T15:43:44.584Z,0.90
2024-01-17T15:46:14.325Z,0.90
2024-01-17T15:48:42.967Z,0.90
2024-01-17T15:51:11.510Z,0.90
2024-01-17T15:53:40.887Z,0.90
2024-01-17T15:56:09.212Z,0.80
2024-01-17T15:58:37.550Z,0.80
2024-01-17T16:01:06.583Z,0.90
2024-01-17T16:03:36.367Z,0.90
2024-01-17T16:06:06.002Z,0.80
2024-01-17T16:08:34.716Z,0.90
2024-01-17T16:11:03.950Z,0.80
2024-01-17T16:13:32.439Z,0.80
2024-01-17T16:16:02.214Z,0.80
2024-01-17T16:18:30.734Z,0.80
2024-01-17T16:21:00.889Z,0.80
2024-01-17T16:23:29.324Z,0.90
2024-01-17T16:25:57.662Z,0.80
2024-01-17T16:28:25.898Z,0.80
2024-01-17T16:30:56.204Z,0.80
2024-01-17T16:33:25.030Z,0.80
2024-01-17T16:35:53.746Z,0.90
2024-01-17T16:38:23.475Z,0.90
2024-01-17T16:40:51.717Z,0.90
2024-01-17T16:43:20.076Z,0.90
2024-01-17T16:45:48.432Z,0.90
2024-01-17T16:48:16.855Z,0.90
2024-01-17T16:50:45.770Z,0.90
2024-01-17T16:53:15.300Z,0.90
2024-01-17T16:55:45.244Z,0.90
2024-01-17T16:58:13.644Z,0.90
2024-01-17T17:00:42.000Z,0.90
2024-01-17T17:03:10.529Z,0.90
2024-01-17T17:05:39.499Z,0.90
2024-01-17T17:08:08.290Z,0.90
2024-01-17T17:10:37.679Z,1.00
2024-01-17T17:13:07.626Z,1.00
2024-01-17T17:15:36.096Z,1.00
2024-01-17T17:18:05.644Z,1.00
2024-01-17T17:20:34.125Z,1.00
2024-01-17T17:23:03.629Z,1.00
2024-01-17T17:25:32.025Z,0.90
2024-01-17T17:28:00.518Z,0.90
2024-01-17T17:30:30.231Z,0.90
2024-01-17T17:33:02.125Z,0.90
2024-01-17T17:35:31.633Z,0.90
2024-01-17T17:37:59.993Z,0.80
2024-01-17T17:40:28.360Z,0.80
2024-01-17T17:42:56.714Z,0.80
2024-01-17T17:45:25.202Z,0.80
2024-01-17T17:47:55.172Z,0.80
2024-01-17T17:50:23.767Z,0.80
2024-01-17T17:52:53.392Z,0.80
2024-01-17T17:55:21.749Z,0.80
2024-01-17T17:57:50.760Z,0.70
2024-01-17T18:00:21.569Z,0.70
2024-01-17T18:02:50.037Z,0.70
2024-01-17T18:05:19.900Z,0.70
2024-01-17T18:07:48.876Z,0.70
2024-01-17T18:10:17.189Z,0.70
2024-01-17T18:12:46.167Z,0.70
2024-01-17T18:15:16.516Z,0.70
2024-01-17T18:17:45.032Z,0.70
2024-01-17T18:20:13.539Z,0.70
2024-01-17T18:22:43.257Z,0.60
2024-01-17T18:25:14.100Z,0.60
2024-01-17T18:27:42.555Z,0.60
2024-01-17T18:30:12.126Z,0.60
2024-01-17T18:32:40.472Z,0.60
2024-01-17T18:35:09.758Z,0.60
2024-01-17T18:37:38.167Z,0.60
2024-01-17T18:40:12.403Z,0.60
2024-01-17T18:42:40.831Z,0.60
2024-01-17T18:45:10.064Z,0.60
2024-01-17T18:47:38.506Z,0.60
2024-01-17T18:50:08.257Z,0.60
2024-01-17T18:52:36.593Z,0.60
2024-01-17T18:55:05.595Z,0.60
2024-01-17T18:57:35.942Z,0.60
2024-01-17T19:00:04.980Z,0.70
2024-01-17T19:02:33.428Z,0.70
2024-01-17T19:05:02.115Z,0.70
2024-01-17T19:07:30.534Z,0.70
2024-01-17T19:09:58.857Z,0.70
2024-01-17T19:12:27.226Z,0.70
2024-01-17T19:14:57.002Z,0.70
2024-01-17T19:17:28.723Z,0.70
2024-01-17T19:19:57.235Z,0.70
2024-01-17T19:22:26.446Z,0.70
2024-01-17T19:24:55.279Z,0.70
2024-01-17T19:27:23.830Z,0.70
2024-01-17T19:29:52.238Z,0.70
2024-01-17T19:32:22.004Z,0.70
2024-01-17T19:34:50.451Z,0.70
2024-01-17T19:37:18.922Z,0.70
2024-01-17T19:39:47.340Z,0.80
2024-01-17T19:42:15.749Z,0.80
2024-01-17T19:44:44.256Z,0.80
2024-01-17T19:47:13.476Z,0.80
2024-01-17T19:49:43.345Z,0.80
2024-01-17T19:52:13.018Z,0.90
2024-01-17T19:54:42.012Z,0.80
2024-01-17T19:57:10.502Z,0.80
2024-01-17T19:59:38.882Z,0.80
2024-01-17T20:02:07.632Z,0.80
2024-01-17T20:04:36.012Z,0.70
2024-01-17T20:07:06.158Z,0.70
2024-01-17T20:09:34.667Z,0.80
2024-01-17T20:12:04.788Z,0.80
2024-01-17T20:14:33.543Z,0.80
2024-01-17T20:17:01.867Z,0.80
2024-01-17T20:19:31.316Z,0.80
2024-01-17T20:22:00.135Z,0.80
2024-01-17T20:24:30.577Z,0.80
2024-01-17T20:26:59.193Z,0.70
2024-01-17T20:29:27.552Z,0.70
2024-01-17T20:31:56.152Z,0.60
2024-01-17T20:34:25.442Z,0.50
2024-01-17T20:36:54.900Z,0.60
2024-01-17T20:39:30.433Z,0.60
2024-01-17T20:42:00.890Z,0.70
2024-01-17T20:44:31.324Z,0.70
2024-01-17T20:47:00.016Z,0.80
2024-01-17T20:49:28.602Z,0.80
2024-01-17T20:51:57.172Z,0.80
2024-01-17T20:54:25.679Z,0.80
2024-01-17T20:56:54.134Z,0.80
2024-01-17T20:59:24.844Z,0.80
2024-01-17T21:01:53.639Z,0.80
2024-01-17T21:04:21.982Z,0.80
2024-01-17T21:06:50.805Z,0.80
2024-01-17T21:09:19.257Z,0.90
2024-01-17T21:11:47.619Z,0.90
2024-01-17T21:14:16.093Z,0.80
2024-01-17T21:16:46.371Z,0.80
2024-01-17T21:19:14.927Z,0.80
2024-01-17T21:21:43.421Z,0.80
2024-01-17T21:24:12.229Z,0.80
2024-01-17T21:26:43.295Z,0.80
2024-01-17T21:29:13.735Z,0.80
2024-01-17T21:31:43.586Z,0.70
2024-01-17T21:34:13.637Z,0.70
2024-01-17T21:36:42.139Z,0.70
2024-01-17T21:39:11.770Z,0.70
2024-01-17T21:41:40.311Z,0.70
2024-01-17T21:44:09.413Z,0.60
2024-01-17T21:46:37.947Z,0.70
2024-01-17T21:49:06.503Z,0.70
2024-01-17T21:51:39.329Z,0.60
2024-01-17T21:54:07.958Z,0.70
2024-01-17T21:56:36.407Z,0.70
2024-01-17T21:59:05.035Z,0.70
2024-01-17T22:01:33.811Z,0.70
2024-01-17T22:04:02.252Z,0.60
2024-01-17T22:06:31.019Z,0.60
2024-01-17T22:09:01.780Z,0.60
2024-01-17T22:11:30.229Z,0.70
2024-01-17T22:13:58.812Z,0.70
2024-01-17T22:16:27.240Z,0.70
2024-01-17T22:18:55.686Z,0.70
2024-01-17T22:21:24.310Z,0.70
2024-01-17T22:23:52.857Z,0.70
2024-01-17T22:26:22.617Z,0.70
2024-01-17T22:28:50.980Z,0.70
2024-01-17T22:31:25.139Z,0.70
2024-01-17T22:33:54.235Z,0.70
2024-01-17T22:36:23.076Z,0.80
2024-01-17T22:38:51.608Z,0.70
2024-01-17T22:41:20.059Z,0.70
2024-01-17T22:43:49.782Z,0.80
2024-01-17T22:46:18.246Z,0.80
2024-01-17T22:48:46.588Z,0.80
2024-01-17T22:51:15.007Z,0.70
2024-01-17T22:53:43.550Z,0.70
2024-01-17T22:56:14.497Z,0.70
2024-01-17T22:58:44.158Z,0.70
2024-01-17T23:01:13.808Z,0.70
2024-01-17T23:03:43.379Z,0.80
2024-01-17T23:06:12.062Z,0.80
2024-01-17T23:08:40.429Z,0.90
2024-01-17T23:11:20.265Z,0.90
2024-01-17T23:13:53.052Z,0.90
2024-01-17T23:16:23.581Z,0.90
2024-01-17T23:18:52.545Z,0.90
2024-01-17T23:21:21.179Z,0.90
2024-01-17T23:23:49.544Z,0.90
2024-01-17T23:26:17.956Z,0.90
2024-01-17T23:28:46.390Z,0.90
2024-01-17T23:31:16.350Z,0.90
2024-01-17T23:33:46.279Z,0.90
2024-01-17T23:36:15.241Z,0.90
2024-01-17T23:38:44.042Z,0.90
2024-01-17T23:41:12.371Z,0.90
2024-01-17T23:43:40.751Z,0.80
2024-01-17T23:46:09.208Z,0.80
2024-01-17T23:48:37.722Z,0.70
2024-01-17T23:51:07.617Z,0.70
2024-01-17T23:53:36.078Z,0.70
2024-01-17T23:56:04.859Z,0.70
2024-01-17T23:58:33.303Z,0.60
